sensor_id;sensor_type;location;lat;lon;timestamp;P1;durP1;ratioP1;P2;durP2;ratioP2
18899;SDS011;9582;52.018;6.306;2023-04-06T00:00:06;9.83;;;6.70;;
18899;SDS011;9582;52.018;6.306;2023-04-06T00:02:36;12.83;;;7.90;;
18899;SDS011;9582;52.018;6.306;2023-04-06T00:05:02;9.77;;;7.00;;
18899;SDS011;9582;52.018;6.306;2023-04-06T00:07:29;9.83;;;6.77;;
18899;SDS011;9582;52.018;6.306;2023-04-06T00:09:58;9.97;;;7.47;;
18899;SDS011;9582;52.018;6.306;2023-04-06T00:12:25;9.20;;;6.83;;
18899;SDS011;9582;52.018;6.306;2023-04-06T00:14:51;10.00;;;8.00;;
18899;SDS011;9582;52.018;6.306;2023-04-06T00:17:18;10.43;;;7.53;;
18899;SDS011;9582;52.018;6.306;2023-04-06T00:19:46;10.63;;;6.23;;
18899;SDS011;9582;52.018;6.306;2023-04-06T00:22:12;9.07;;;6.13;;
18899;SDS011;9582;52.018;6.306;2023-04-06T00:24:38;11.07;;;7.60;;
18899;SDS011;9582;52.018;6.306;2023-04-06T00:27:05;10.43;;;7.27;;
18899;SDS011;9582;52.018;6.306;2023-04-06T00:29:31;14.87;;;8.17;;
18899;SDS011;9582;52.018;6.306;2023-04-06T00:31:59;10.60;;;7.90;;
18899;SDS011;9582;52.018;6.306;2023-04-06T00:34:25;15.33;;;9.00;;
18899;SDS011;9582;52.018;6.306;2023-04-06T00:36:53;12.30;;;7.80;;
18899;SDS011;9582;52.018;6.306;2023-04-06T00:39:19;12.73;;;7.17;;
18899;SDS011;9582;52.018;6.306;2023-04-06T00:41:51;10.20;;;7.87;;
18899;SDS011;9582;52.018;6.306;2023-04-06T00:44:18;11.23;;;8.10;;
18899;SDS011;9582;52.018;6.306;2023-04-06T00:46:45;12.00;;;7.73;;
18899;SDS011;9582;52.018;6.306;2023-04-06T00:49:11;15.00;;;8.57;;
18899;SDS011;9582;52.018;6.306;2023-04-06T00:51:38;12.50;;;8.93;;
18899;SDS011;9582;52.018;6.306;2023-04-06T00:54:06;13.83;;;8.00;;
18899;SDS011;9582;52.018;6.306;2023-04-06T00:56:34;12.97;;;8.33;;
18899;SDS011;9582;52.018;6.306;2023-04-06T00:59:01;12.83;;;7.80;;
18899;SDS011;9582;52.018;6.306;2023-04-06T01:01:28;11.73;;;8.37;;
18899;SDS011;9582;52.018;6.306;2023-04-06T01:04:01;13.53;;;8.27;;
18899;SDS011;9582;52.018;6.306;2023-04-06T01:06:28;13.60;;;9.27;;
18899;SDS011;9582;52.018;6.306;2023-04-06T01:08:58;13.97;;;9.43;;
18899;SDS011;9582;52.018;6.306;2023-04-06T01:11:27;8.47;;;6.20;;
18899;SDS011;9582;52.018;6.306;2023-04-06T01:13:54;12.37;;;7.90;;
18899;SDS011;9582;52.018;6.306;2023-04-06T01:16:36;12.30;;;8.43;;
18899;SDS011;9582;52.018;6.306;2023-04-06T01:19:09;11.63;;;8.17;;
18899;SDS011;9582;52.018;6.306;2023-04-06T01:21:37;10.30;;;7.70;;
18899;SDS011;9582;52.018;6.306;2023-04-06T01:24:23;15.90;;;10.17;;
18899;SDS011;9582;52.018;6.306;2023-04-06T01:27:21;16.30;;;9.10;;
18899;SDS011;9582;52.018;6.306;2023-04-06T01:30:04;14.17;;;9.80;;
18899;SDS011;9582;52.018;6.306;2023-04-06T01:32:39;12.63;;;9.50;;
18899;SDS011;9582;52.018;6.306;2023-04-06T01:35:07;13.30;;;8.90;;
18899;SDS011;9582;52.018;6.306;2023-04-06T01:37:40;12.33;;;9.13;;
18899;SDS011;9582;52.018;6.306;2023-04-06T01:40:12;10.40;;;8.13;;
18899;SDS011;9582;52.018;6.306;2023-04-06T01:42:43;11.57;;;7.67;;
18899;SDS011;9582;52.018;6.306;2023-04-06T01:45:16;12.07;;;7.83;;
18899;SDS011;9582;52.018;6.306;2023-04-06T01:47:43;15.27;;;9.50;;
18899;SDS011;9582;52.018;6.306;2023-04-06T01:50:11;14.03;;;8.93;;
18899;SDS011;9582;52.018;6.306;2023-04-06T01:52:43;9.47;;;7.80;;
18899;SDS011;9582;52.018;6.306;2023-04-06T01:55:10;10.33;;;8.50;;
18899;SDS011;9582;52.018;6.306;2023-04-06T01:57:57;13.30;;;9.03;;
18899;SDS011;9582;52.018;6.306;2023-04-06T02:00:34;12.20;;;8.03;;
18899;SDS011;9582;52.018;6.306;2023-04-06T02:03:01;10.57;;;8.00;;
18899;SDS011;9582;52.018;6.306;2023-04-06T02:05:30;11.63;;;7.37;;
18899;SDS011;9582;52.018;6.306;2023-04-06T02:07:59;11.00;;;6.87;;
18899;SDS011;9582;52.018;6.306;2023-04-06T02:10:32;10.60;;;6.73;;
18899;SDS011;9582;52.018;6.306;2023-04-06T02:13:06;13.93;;;8.07;;
18899;SDS011;9582;52.018;6.306;2023-04-06T02:15:33;12.23;;;7.97;;
18899;SDS011;9582;52.018;6.306;2023-04-06T02:18:00;11.90;;;8.20;;
18899;SDS011;9582;52.018;6.306;2023-04-06T02:20:26;14.90;;;8.97;;
18899;SDS011;9582;52.018;6.306;2023-04-06T02:22:53;12.63;;;7.67;;
18899;SDS011;9582;52.018;6.306;2023-04-06T02:25:19;12.13;;;9.00;;
18899;SDS011;9582;52.018;6.306;2023-04-06T02:27:46;12.53;;;8.87;;
18899;SDS011;9582;52.018;6.306;2023-04-06T02:30:14;14.60;;;8.13;;
18899;SDS011;9582;52.018;6.306;2023-04-06T02:32:40;11.50;;;7.17;;
18899;SDS011;9582;52.018;6.306;2023-04-06T02:35:08;13.00;;;8.57;;
18899;SDS011;9582;52.018;6.306;2023-04-06T02:37:34;11.57;;;8.50;;
18899;SDS011;9582;52.018;6.306;2023-04-06T02:40:01;11.23;;;8.50;;
18899;SDS011;9582;52.018;6.306;2023-04-06T02:42:29;13.53;;;9.67;;
18899;SDS011;9582;52.018;6.306;2023-04-06T02:44:56;12.37;;;9.00;;
18899;SDS011;9582;52.018;6.306;2023-04-06T02:47:28;13.97;;;8.97;;
18899;SDS011;9582;52.018;6.306;2023-04-06T02:49:54;11.70;;;8.77;;
18899;SDS011;9582;52.018;6.306;2023-04-06T02:52:21;11.37;;;8.53;;
18899;SDS011;9582;52.018;6.306;2023-04-06T02:54:47;12.53;;;9.03;;
18899;SDS011;9582;52.018;6.306;2023-04-06T02:57:21;12.77;;;8.87;;
18899;SDS011;9582;52.018;6.306;2023-04-06T02:59:48;14.37;;;9.20;;
18899;SDS011;9582;52.018;6.306;2023-04-06T03:02:22;12.23;;;9.60;;
18899;SDS011;9582;52.018;6.306;2023-04-06T03:04:51;12.17;;;9.03;;
18899;SDS011;9582;52.018;6.306;2023-04-06T03:07:30;12.63;;;9.43;;
18899;SDS011;9582;52.018;6.306;2023-04-06T03:09:56;13.10;;;10.10;;
18899;SDS011;9582;52.018;6.306;2023-04-06T03:12:23;14.20;;;9.20;;
18899;SDS011;9582;52.018;6.306;2023-04-06T03:15:08;13.47;;;9.27;;
18899;SDS011;9582;52.018;6.306;2023-04-06T03:17:36;14.33;;;8.90;;
18899;SDS011;9582;52.018;6.306;2023-04-06T03:20:09;14.37;;;9.30;;
18899;SDS011;9582;52.018;6.306;2023-04-06T03:22:36;14.23;;;8.43;;
18899;SDS011;9582;52.018;6.306;2023-04-06T03:25:04;12.87;;;8.97;;
18899;SDS011;9582;52.018;6.306;2023-04-06T03:27:32;13.33;;;9.13;;
18899;SDS011;9582;52.018;6.306;2023-04-06T03:29:59;12.23;;;9.47;;
18899;SDS011;9582;52.018;6.306;2023-04-06T03:32:31;13.17;;;8.97;;
18899;SDS011;9582;52.018;6.306;2023-04-06T03:34:57;14.23;;;9.70;;
18899;SDS011;9582;52.018;6.306;2023-04-06T03:37:25;13.83;;;9.20;;
18899;SDS011;9582;52.018;6.306;2023-04-06T03:39:57;13.03;;;9.33;;
18899;SDS011;9582;52.018;6.306;2023-04-06T03:42:24;13.90;;;8.27;;
18899;SDS011;9582;52.018;6.306;2023-04-06T03:44:56;10.50;;;7.30;;
18899;SDS011;9582;52.018;6.306;2023-04-06T03:47:23;12.33;;;8.40;;
18899;SDS011;9582;52.018;6.306;2023-04-06T03:49:54;14.37;;;9.87;;
18899;SDS011;9582;52.018;6.306;2023-04-06T03:52:21;14.83;;;8.07;;
18899;SDS011;9582;52.018;6.306;2023-04-06T03:54:51;11.83;;;8.47;;
18899;SDS011;9582;52.018;6.306;2023-04-06T03:57:18;16.90;;;8.87;;
18899;SDS011;9582;52.018;6.306;2023-04-06T03:59:44;15.63;;;8.30;;
18899;SDS011;9582;52.018;6.306;2023-04-06T04:02:11;15.53;;;8.13;;
18899;SDS011;9582;52.018;6.306;2023-04-06T04:04:37;14.57;;;8.77;;
18899;SDS011;9582;52.018;6.306;2023-04-06T04:07:04;14.80;;;8.93;;
18899;SDS011;9582;52.018;6.306;2023-04-06T04:09:30;15.13;;;10.07;;
18899;SDS011;9582;52.018;6.306;2023-04-06T04:11:58;13.70;;;9.50;;
18899;SDS011;9582;52.018;6.306;2023-04-06T04:14:25;13.60;;;8.63;;
18899;SDS011;9582;52.018;6.306;2023-04-06T04:16:51;14.03;;;9.73;;
18899;SDS011;9582;52.018;6.306;2023-04-06T04:19:18;12.27;;;8.93;;
18899;SDS011;9582;52.018;6.306;2023-04-06T04:21:45;17.93;;;10.20;;
18899;SDS011;9582;52.018;6.306;2023-04-06T04:24:16;11.07;;;7.87;;
18899;SDS011;9582;52.018;6.306;2023-04-06T04:26:43;15.87;;;7.40;;
18899;SDS011;9582;52.018;6.306;2023-04-06T04:29:11;13.37;;;8.30;;
18899;SDS011;9582;52.018;6.306;2023-04-06T04:31:37;15.03;;;8.50;;
18899;SDS011;9582;52.018;6.306;2023-04-06T04:34:11;15.13;;;9.17;;
18899;SDS011;9582;52.018;6.306;2023-04-06T04:36:37;12.53;;;9.03;;
18899;SDS011;9582;52.018;6.306;2023-04-06T04:39:08;15.17;;;8.57;;
18899;SDS011;9582;52.018;6.306;2023-04-06T04:41:39;13.63;;;8.57;;
18899;SDS011;9582;52.018;6.306;2023-04-06T04:44:08;17.30;;;11.20;;
18899;SDS011;9582;52.018;6.306;2023-04-06T04:46:36;16.60;;;11.60;;
18899;SDS011;9582;52.018;6.306;2023-04-06T04:49:03;16.90;;;11.47;;
18899;SDS011;9582;52.018;6.306;2023-04-06T04:51:31;16.80;;;11.23;;
18899;SDS011;9582;52.018;6.306;2023-04-06T04:54:08;20.47;;;11.87;;
18899;SDS011;9582;52.018;6.306;2023-04-06T04:56:34;18.23;;;10.97;;
18899;SDS011;9582;52.018;6.306;2023-04-06T04:59:18;17.67;;;10.93;;
18899;SDS011;9582;52.018;6.306;2023-04-06T05:01:53;20.67;;;12.00;;
18899;SDS011;9582;52.018;6.306;2023-04-06T05:04:24;20.17;;;12.50;;
18899;SDS011;9582;52.018;6.306;2023-04-06T05:07:01;21.70;;;14.07;;
18899;SDS011;9582;52.018;6.306;2023-04-06T05:09:29;23.40;;;14.23;;
18899;SDS011;9582;52.018;6.306;2023-04-06T05:11:56;23.13;;;15.67;;
18899;SDS011;9582;52.018;6.306;2023-04-06T05:14:22;19.63;;;12.83;;
18899;SDS011;9582;52.018;6.306;2023-04-06T05:16:49;16.23;;;11.53;;
18899;SDS011;9582;52.018;6.306;2023-04-06T05:19:17;16.40;;;11.27;;
18899;SDS011;9582;52.018;6.306;2023-04-06T05:21:44;20.27;;;11.73;;
18899;SDS011;9582;52.018;6.306;2023-04-06T05:24:11;18.17;;;11.83;;
18899;SDS011;9582;52.018;6.306;2023-04-06T05:26:39;16.57;;;11.13;;
18899;SDS011;9582;52.018;6.306;2023-04-06T05:29:12;21.73;;;12.10;;
18899;SDS011;9582;52.018;6.306;2023-04-06T05:31:40;17.47;;;11.70;;
18899;SDS011;9582;52.018;6.306;2023-04-06T05:34:07;18.27;;;11.93;;
18899;SDS011;9582;52.018;6.306;2023-04-06T05:36:37;17.97;;;11.87;;
18899;SDS011;9582;52.018;6.306;2023-04-06T05:39:14;19.47;;;12.63;;
18899;SDS011;9582;52.018;6.306;2023-04-06T05:41:48;18.27;;;12.17;;
18899;SDS011;9582;52.018;6.306;2023-04-06T05:44:20;17.30;;;12.70;;
18899;SDS011;9582;52.018;6.306;2023-04-06T05:46:55;16.67;;;11.67;;
18899;SDS011;9582;52.018;6.306;2023-04-06T05:49:21;16.37;;;11.23;;
18899;SDS011;9582;52.018;6.306;2023-04-06T05:51:49;18.53;;;12.87;;
18899;SDS011;9582;52.018;6.306;2023-04-06T05:54:16;15.73;;;11.67;;
18899;SDS011;9582;52.018;6.306;2023-04-06T05:56:43;18.83;;;12.73;;
18899;SDS011;9582;52.018;6.306;2023-04-06T05:59:11;19.03;;;12.30;;
18899;SDS011;9582;52.018;6.306;2023-04-06T06:01:38;16.53;;;12.27;;
18899;SDS011;9582;52.018;6.306;2023-04-06T06:04:05;19.50;;;11.83;;
18899;SDS011;9582;52.018;6.306;2023-04-06T06:06:35;19.07;;;12.43;;
18899;SDS011;9582;52.018;6.306;2023-04-06T06:09:11;22.27;;;12.07;;
18899;SDS011;9582;52.018;6.306;2023-04-06T06:11:44;18.60;;;12.00;;
18899;SDS011;9582;52.018;6.306;2023-04-06T06:14:13;19.17;;;11.73;;
18899;SDS011;9582;52.018;6.306;2023-04-06T06:16:40;15.80;;;11.50;;
18899;SDS011;9582;52.018;6.306;2023-04-06T06:19:09;17.30;;;12.00;;
18899;SDS011;9582;52.018;6.306;2023-04-06T06:21:36;19.33;;;11.40;;
18899;SDS011;9582;52.018;6.306;2023-04-06T06:24:04;17.97;;;11.90;;
18899;SDS011;9582;52.018;6.306;2023-04-06T06:26:33;19.90;;;12.10;;
18899;SDS011;9582;52.018;6.306;2023-04-06T06:29:02;15.47;;;11.03;;
18899;SDS011;9582;52.018;6.306;2023-04-06T06:31:29;18.73;;;12.63;;
18899;SDS011;9582;52.018;6.306;2023-04-06T06:33:56;17.77;;;11.90;;
18899;SDS011;9582;52.018;6.306;2023-04-06T06:36:24;16.17;;;11.77;;
18899;SDS011;9582;52.018;6.306;2023-04-06T06:38:51;17.43;;;12.17;;
18899;SDS011;9582;52.018;6.306;2023-04-06T06:41:20;17.00;;;12.10;;
18899;SDS011;9582;52.018;6.306;2023-04-06T06:43:47;18.17;;;11.83;;
18899;SDS011;9582;52.018;6.306;2023-04-06T06:46:14;21.23;;;12.40;;
18899;SDS011;9582;52.018;6.306;2023-04-06T06:48:40;20.03;;;12.80;;
18899;SDS011;9582;52.018;6.306;2023-04-06T06:51:07;16.97;;;12.13;;
18899;SDS011;9582;52.018;6.306;2023-04-06T06:53:34;21.67;;;12.93;;
18899;SDS011;9582;52.018;6.306;2023-04-06T06:56:01;22.93;;;12.97;;
18899;SDS011;9582;52.018;6.306;2023-04-06T06:58:29;32.43;;;19.97;;
18899;SDS011;9582;52.018;6.306;2023-04-06T07:00:57;29.00;;;19.20;;
18899;SDS011;9582;52.018;6.306;2023-04-06T07:03:24;22.83;;;14.30;;
18899;SDS011;9582;52.018;6.306;2023-04-06T07:05:50;21.40;;;12.67;;
18899;SDS011;9582;52.018;6.306;2023-04-06T07:08:19;19.10;;;12.50;;
18899;SDS011;9582;52.018;6.306;2023-04-06T07:10:46;18.03;;;12.57;;
18899;SDS011;9582;52.018;6.306;2023-04-06T07:13:13;17.50;;;12.37;;
18899;SDS011;9582;52.018;6.306;2023-04-06T07:15:43;18.67;;;11.97;;
18899;SDS011;9582;52.018;6.306;2023-04-06T07:18:12;17.63;;;13.20;;
18899;SDS011;9582;52.018;6.306;2023-04-06T07:20:38;17.73;;;12.80;;
18899;SDS011;9582;52.018;6.306;2023-04-06T07:23:05;17.27;;;12.97;;
18899;SDS011;9582;52.018;6.306;2023-04-06T07:25:32;17.43;;;12.87;;
18899;SDS011;9582;52.018;6.306;2023-04-06T07:27:59;16.73;;;13.00;;
18899;SDS011;9582;52.018;6.306;2023-04-06T07:30:26;15.47;;;12.07;;
18899;SDS011;9582;52.018;6.306;2023-04-06T07:32:54;19.13;;;12.57;;
18899;SDS011;9582;52.018;6.306;2023-04-06T07:35:23;17.93;;;13.17;;
18899;SDS011;9582;52.018;6.306;2023-04-06T07:37:51;19.07;;;13.43;;
18899;SDS011;9582;52.018;6.306;2023-04-06T07:40:18;19.67;;;13.37;;
18899;SDS011;9582;52.018;6.306;2023-04-06T07:42:45;20.33;;;12.97;;
18899;SDS011;9582;52.018;6.306;2023-04-06T07:45:11;18.33;;;12.23;;
18899;SDS011;9582;52.018;6.306;2023-04-06T07:47:38;18.97;;;13.20;;
18899;SDS011;9582;52.018;6.306;2023-04-06T07:50:05;19.30;;;13.13;;
18899;SDS011;9582;52.018;6.306;2023-04-06T07:52:33;19.03;;;13.90;;
18899;SDS011;9582;52.018;6.306;2023-04-06T07:55:00;16.93;;;12.47;;
18899;SDS011;9582;52.018;6.306;2023-04-06T07:57:26;21.13;;;13.87;;
18899;SDS011;9582;52.018;6.306;2023-04-06T07:59:53;15.50;;;12.63;;
18899;SDS011;9582;52.018;6.306;2023-04-06T08:02:19;18.53;;;12.50;;
18899;SDS011;9582;52.018;6.306;2023-04-06T08:04:46;17.07;;;12.90;;
18899;SDS011;9582;52.018;6.306;2023-04-06T08:07:13;17.97;;;13.13;;
18899;SDS011;9582;52.018;6.306;2023-04-06T08:09:41;18.03;;;13.50;;
18899;SDS011;9582;52.018;6.306;2023-04-06T08:12:08;18.70;;;12.27;;
18899;SDS011;9582;52.018;6.306;2023-04-06T08:14:34;17.10;;;12.27;;
18899;SDS011;9582;52.018;6.306;2023-04-06T08:17:01;16.73;;;12.50;;
18899;SDS011;9582;52.018;6.306;2023-04-06T08:19:27;19.37;;;13.13;;
18899;SDS011;9582;52.018;6.306;2023-04-06T08:21:54;18.40;;;14.67;;
18899;SDS011;9582;52.018;6.306;2023-04-06T08:24:20;20.90;;;16.03;;
18899;SDS011;9582;52.018;6.306;2023-04-06T08:26:48;20.70;;;13.47;;
18899;SDS011;9582;52.018;6.306;2023-04-06T08:29:15;17.37;;;13.37;;
18899;SDS011;9582;52.018;6.306;2023-04-06T08:31:42;18.20;;;12.63;;
18899;SDS011;9582;52.018;6.306;2023-04-06T08:34:08;17.20;;;14.40;;
18899;SDS011;9582;52.018;6.306;2023-04-06T08:36:35;16.20;;;12.37;;
18899;SDS011;9582;52.018;6.306;2023-04-06T08:39:02;17.50;;;13.20;;
18899;SDS011;9582;52.018;6.306;2023-04-06T08:41:28;18.17;;;13.70;;
18899;SDS011;9582;52.018;6.306;2023-04-06T08:43:57;17.90;;;13.43;;
18899;SDS011;9582;52.018;6.306;2023-04-06T08:46:25;19.67;;;14.87;;
18899;SDS011;9582;52.018;6.306;2023-04-06T08:48:55;18.13;;;13.23;;
18899;SDS011;9582;52.018;6.306;2023-04-06T08:51:22;18.03;;;14.30;;
18899;SDS011;9582;52.018;6.306;2023-04-06T08:53:50;18.83;;;14.10;;
18899;SDS011;9582;52.018;6.306;2023-04-06T08:56:19;18.47;;;13.60;;
18899;SDS011;9582;52.018;6.306;2023-04-06T08:58:47;19.80;;;13.70;;
18899;SDS011;9582;52.018;6.306;2023-04-06T09:01:16;20.70;;;13.83;;
18899;SDS011;9582;52.018;6.306;2023-04-06T09:03:46;17.10;;;13.17;;
18899;SDS011;9582;52.018;6.306;2023-04-06T09:06:14;18.20;;;13.43;;
18899;SDS011;9582;52.018;6.306;2023-04-06T09:08:41;17.87;;;13.30;;
18899;SDS011;9582;52.018;6.306;2023-04-06T09:11:08;17.13;;;12.80;;
18899;SDS011;9582;52.018;6.306;2023-04-06T09:13:44;18.50;;;13.77;;
18899;SDS011;9582;52.018;6.306;2023-04-06T09:16:12;16.30;;;12.73;;
18899;SDS011;9582;52.018;6.306;2023-04-06T09:18:40;20.60;;;14.40;;
18899;SDS011;9582;52.018;6.306;2023-04-06T09:21:06;19.73;;;13.17;;
18899;SDS011;9582;52.018;6.306;2023-04-06T09:23:34;20.20;;;13.90;;
18899;SDS011;9582;52.018;6.306;2023-04-06T09:26:07;33.07;;;25.53;;
18899;SDS011;9582;52.018;6.306;2023-04-06T09:28:45;30.60;;;23.10;;
18899;SDS011;9582;52.018;6.306;2023-04-06T09:31:13;23.83;;;18.70;;
18899;SDS011;9582;52.018;6.306;2023-04-06T09:33:43;18.20;;;14.50;;
18899;SDS011;9582;52.018;6.306;2023-04-06T09:36:10;18.60;;;13.77;;
18899;SDS011;9582;52.018;6.306;2023-04-06T09:38:39;20.33;;;14.80;;
18899;SDS011;9582;52.018;6.306;2023-04-06T09:41:20;17.97;;;13.20;;
18899;SDS011;9582;52.018;6.306;2023-04-06T09:43:48;23.03;;;18.57;;
18899;SDS011;9582;52.018;6.306;2023-04-06T09:46:15;18.90;;;13.37;;
18899;SDS011;9582;52.018;6.306;2023-04-06T09:48:44;18.30;;;14.40;;
18899;SDS011;9582;52.018;6.306;2023-04-06T09:51:11;18.17;;;12.63;;
18899;SDS011;9582;52.018;6.306;2023-04-06T09:53:42;15.67;;;13.00;;
18899;SDS011;9582;52.018;6.306;2023-04-06T09:56:16;28.93;;;20.07;;
18899;SDS011;9582;52.018;6.306;2023-04-06T09:58:45;16.20;;;12.43;;
18899;SDS011;9582;52.018;6.306;2023-04-06T10:01:16;29.07;;;22.67;;
18899;SDS011;9582;52.018;6.306;2023-04-06T10:03:51;17.40;;;14.30;;
18899;SDS011;9582;52.018;6.306;2023-04-06T10:06:22;19.47;;;15.30;;
18899;SDS011;9582;52.018;6.306;2023-04-06T10:08:52;18.83;;;14.33;;
18899;SDS011;9582;52.018;6.306;2023-04-06T10:11:22;24.77;;;18.40;;
18899;SDS011;9582;52.018;6.306;2023-04-06T10:13:49;18.47;;;14.43;;
18899;SDS011;9582;52.018;6.306;2023-04-06T10:16:16;19.37;;;12.87;;
18899;SDS011;9582;52.018;6.306;2023-04-06T10:18:44;19.23;;;15.80;;
18899;SDS011;9582;52.018;6.306;2023-04-06T10:21:14;19.30;;;14.57;;
18899;SDS011;9582;52.018;6.306;2023-04-06T10:23:47;17.83;;;14.48;;
18899;SDS011;9582;52.018;6.306;2023-04-06T10:26:15;19.02;;;13.30;;
18899;SDS011;9582;52.018;6.306;2023-04-06T10:28:43;18.97;;;13.93;;
18899;SDS011;9582;52.018;6.306;2023-04-06T10:31:11;31.02;;;20.08;;
18899;SDS011;9582;52.018;6.306;2023-04-06T10:33:38;27.20;;;19.20;;
18899;SDS011;9582;52.018;6.306;2023-04-06T10:36:12;20.52;;;15.45;;
18899;SDS011;9582;52.018;6.306;2023-04-06T10:38:41;16.88;;;14.20;;
18899;SDS011;9582;52.018;6.306;2023-04-06T10:41:08;20.27;;;15.82;;
18899;SDS011;9582;52.018;6.306;2023-04-06T10:43:36;21.50;;;16.58;;
18899;SDS011;9582;52.018;6.306;2023-04-06T10:46:04;15.85;;;12.95;;
18899;SDS011;9582;52.018;6.306;2023-04-06T10:48:38;18.30;;;13.38;;
18899;SDS011;9582;52.018;6.306;2023-04-06T10:51:10;17.42;;;13.75;;
18899;SDS011;9582;52.018;6.306;2023-04-06T10:53:38;18.58;;;14.30;;
18899;SDS011;9582;52.018;6.306;2023-04-06T10:56:09;17.75;;;13.88;;
18899;SDS011;9582;52.018;6.306;2023-04-06T10:58:37;18.67;;;14.15;;
18899;SDS011;9582;52.018;6.306;2023-04-06T11:01:03;18.70;;;14.07;;
18899;SDS011;9582;52.018;6.306;2023-04-06T11:03:30;16.95;;;13.57;;
18899;SDS011;9582;52.018;6.306;2023-04-06T11:05:57;18.08;;;14.18;;
18899;SDS011;9582;52.018;6.306;2023-04-06T11:08:28;18.58;;;13.38;;
18899;SDS011;9582;52.018;6.306;2023-04-06T11:11:07;21.27;;;13.65;;
18899;SDS011;9582;52.018;6.306;2023-04-06T11:13:38;22.83;;;14.13;;
18899;SDS011;9582;52.018;6.306;2023-04-06T11:16:06;20.30;;;14.13;;
18899;SDS011;9582;52.018;6.306;2023-04-06T11:18:33;16.55;;;13.18;;
18899;SDS011;9582;52.018;6.306;2023-04-06T11:21:00;19.58;;;14.00;;
18899;SDS011;9582;52.018;6.306;2023-04-06T11:23:26;18.55;;;13.68;;
18899;SDS011;9582;52.018;6.306;2023-04-06T11:25:53;19.13;;;14.05;;
18899;SDS011;9582;52.018;6.306;2023-04-06T11:28:21;18.95;;;13.55;;
18899;SDS011;9582;52.018;6.306;2023-04-06T11:30:48;19.38;;;13.60;;
18899;SDS011;9582;52.018;6.306;2023-04-06T11:33:19;20.70;;;12.50;;
18899;SDS011;9582;52.018;6.306;2023-04-06T11:35:47;24.17;;;13.02;;
18899;SDS011;9582;52.018;6.306;2023-04-06T11:38:14;16.50;;;12.93;;
18899;SDS011;9582;52.018;6.306;2023-04-06T11:40:40;16.42;;;11.48;;
18899;SDS011;9582;52.018;6.306;2023-04-06T11:43:10;17.15;;;11.68;;
18899;SDS011;9582;52.018;6.306;2023-04-06T11:45:42;13.65;;;9.52;;
18899;SDS011;9582;52.018;6.306;2023-04-06T11:48:17;11.85;;;8.68;;
18899;SDS011;9582;52.018;6.306;2023-04-06T11:50:46;13.90;;;9.65;;
18899;SDS011;9582;52.018;6.306;2023-04-06T11:53:12;16.65;;;10.25;;
18899;SDS011;9582;52.018;6.306;2023-04-06T11:55:39;17.27;;;11.10;;
18899;SDS011;9582;52.018;6.306;2023-04-06T11:58:05;13.10;;;9.93;;
18899;SDS011;9582;52.018;6.306;2023-04-06T12:00:32;15.40;;;10.80;;
18899;SDS011;9582;52.018;6.306;2023-04-06T12:03:01;14.40;;;11.32;;
18899;SDS011;9582;52.018;6.306;2023-04-06T12:05:27;18.00;;;11.98;;
18899;SDS011;9582;52.018;6.306;2023-04-06T12:07:54;17.20;;;10.63;;
18899;SDS011;9582;52.018;6.306;2023-04-06T12:10:21;14.50;;;11.27;;
18899;SDS011;9582;52.018;6.306;2023-04-06T12:12:48;15.75;;;11.30;;
18899;SDS011;9582;52.018;6.306;2023-04-06T12:15:15;15.35;;;11.02;;
18899;SDS011;9582;52.018;6.306;2023-04-06T12:17:41;15.77;;;11.40;;
18899;SDS011;9582;52.018;6.306;2023-04-06T12:20:10;17.38;;;11.20;;
18899;SDS011;9582;52.018;6.306;2023-04-06T12:22:36;15.20;;;11.27;;
18899;SDS011;9582;52.018;6.306;2023-04-06T12:25:03;15.18;;;11.25;;
18899;SDS011;9582;52.018;6.306;2023-04-06T12:27:31;16.75;;;11.80;;
18899;SDS011;9582;52.018;6.306;2023-04-06T12:29:58;15.98;;;11.70;;
18899;SDS011;9582;52.018;6.306;2023-04-06T12:32:25;16.35;;;11.73;;
18899;SDS011;9582;52.018;6.306;2023-04-06T12:34:52;15.65;;;12.32;;
18899;SDS011;9582;52.018;6.306;2023-04-06T12:37:19;17.02;;;13.18;;
18899;SDS011;9582;52.018;6.306;2023-04-06T12:39:46;13.27;;;10.60;;
18899;SDS011;9582;52.018;6.306;2023-04-06T12:42:13;15.73;;;11.32;;
18899;SDS011;9582;52.018;6.306;2023-04-06T12:44:39;13.52;;;10.90;;
18899;SDS011;9582;52.018;6.306;2023-04-06T12:47:07;13.35;;;11.25;;
18899;SDS011;9582;52.018;6.306;2023-04-06T12:49:34;16.63;;;12.52;;
18899;SDS011;9582;52.018;6.306;2023-04-06T12:52:01;13.82;;;11.25;;
18899;SDS011;9582;52.018;6.306;2023-04-06T12:54:29;18.65;;;11.80;;
18899;SDS011;9582;52.018;6.306;2023-04-06T12:56:55;16.48;;;11.98;;
18899;SDS011;9582;52.018;6.306;2023-04-06T12:59:22;15.25;;;11.82;;
18899;SDS011;9582;52.018;6.306;2023-04-06T13:01:50;16.67;;;11.73;;
18899;SDS011;9582;52.018;6.306;2023-04-06T13:04:17;18.77;;;12.75;;
18899;SDS011;9582;52.018;6.306;2023-04-06T13:06:44;13.23;;;10.80;;
18899;SDS011;9582;52.018;6.306;2023-04-06T13:09:10;13.17;;;10.70;;
18899;SDS011;9582;52.018;6.306;2023-04-06T13:11:38;16.17;;;11.33;;
18899;SDS011;9582;52.018;6.306;2023-04-06T13:14:06;17.27;;;11.60;;
18899;SDS011;9582;52.018;6.306;2023-04-06T13:16:32;15.97;;;11.00;;
18899;SDS011;9582;52.018;6.306;2023-04-06T13:19:00;12.40;;;9.70;;
18899;SDS011;9582;52.018;6.306;2023-04-06T13:21:26;12.87;;;9.47;;
18899;SDS011;9582;52.018;6.306;2023-04-06T13:23:52;13.27;;;9.17;;
18899;SDS011;9582;52.018;6.306;2023-04-06T13:26:19;11.97;;;8.70;;
18899;SDS011;9582;52.018;6.306;2023-04-06T13:28:47;11.90;;;9.70;;
18899;SDS011;9582;52.018;6.306;2023-04-06T13:31:14;12.50;;;9.87;;
18899;SDS011;9582;52.018;6.306;2023-04-06T13:33:40;14.07;;;9.87;;
18899;SDS011;9582;52.018;6.306;2023-04-06T13:36:07;13.97;;;9.60;;
18899;SDS011;9582;52.018;6.306;2023-04-06T13:38:34;11.70;;;9.17;;
18899;SDS011;9582;52.018;6.306;2023-04-06T13:41:00;13.53;;;9.60;;
18899;SDS011;9582;52.018;6.306;2023-04-06T13:43:27;12.27;;;9.33;;
18899;SDS011;9582;52.018;6.306;2023-04-06T13:45:55;12.77;;;8.97;;
18899;SDS011;9582;52.018;6.306;2023-04-06T13:48:23;12.50;;;9.27;;
18899;SDS011;9582;52.018;6.306;2023-04-06T13:50:51;12.67;;;9.47;;
18899;SDS011;9582;52.018;6.306;2023-04-06T13:53:17;10.73;;;8.27;;
18899;SDS011;9582;52.018;6.306;2023-04-06T13:55:51;13.30;;;9.63;;
18899;SDS011;9582;52.018;6.306;2023-04-06T13:58:18;11.33;;;9.03;;
18899;SDS011;9582;52.018;6.306;2023-04-06T14:00:45;11.40;;;8.83;;
18899;SDS011;9582;52.018;6.306;2023-04-06T14:03:13;11.33;;;9.03;;
18899;SDS011;9582;52.018;6.306;2023-04-06T14:05:40;10.80;;;8.17;;
18899;SDS011;9582;52.018;6.306;2023-04-06T14:08:06;13.40;;;9.70;;
18899;SDS011;9582;52.018;6.306;2023-04-06T14:10:36;12.97;;;9.10;;
18899;SDS011;9582;52.018;6.306;2023-04-06T14:13:03;10.43;;;8.23;;
18899;SDS011;9582;52.018;6.306;2023-04-06T14:15:29;10.03;;;7.40;;
18899;SDS011;9582;52.018;6.306;2023-04-06T14:17:56;10.07;;;7.57;;
18899;SDS011;9582;52.018;6.306;2023-04-06T14:20:24;9.80;;;7.60;;
18899;SDS011;9582;52.018;6.306;2023-04-06T14:22:50;10.57;;;7.60;;
18899;SDS011;9582;52.018;6.306;2023-04-06T14:25:17;11.03;;;7.47;;
18899;SDS011;9582;52.018;6.306;2023-04-06T14:27:44;9.83;;;7.70;;
18899;SDS011;9582;52.018;6.306;2023-04-06T14:30:11;12.43;;;7.93;;
18899;SDS011;9582;52.018;6.306;2023-04-06T14:32:38;10.50;;;7.37;;
18899;SDS011;9582;52.018;6.306;2023-04-06T14:35:06;11.47;;;7.53;;
18899;SDS011;9582;52.018;6.306;2023-04-06T14:37:34;10.07;;;7.10;;
18899;SDS011;9582;52.018;6.306;2023-04-06T14:40:00;9.87;;;7.50;;
18899;SDS011;9582;52.018;6.306;2023-04-06T14:42:27;10.43;;;8.00;;
18899;SDS011;9582;52.018;6.306;2023-04-06T14:44:53;10.87;;;7.70;;
18899;SDS011;9582;52.018;6.306;2023-04-06T14:47:20;11.90;;;6.87;;